createdAt,value
2019-05-15T00:00:58.842Z,2.30
2019-05-15T00:03:29.653Z,2.60
2019-05-15T00:06:02.705Z,2.40
2019-05-15T00:08:43.656Z,2.35
2019-05-15T00:11:13.786Z,2.60
2019-05-15T00:13:41.993Z,2.95
2019-05-15T00:16:10.805Z,2.50
2019-05-15T00:18:48.193Z,2.42
2019-05-15T00:21:38.157Z,2.50
2019-05-15T00:24:05.258Z,2.42
2019-05-15T00:26:41.736Z,2.50
2019-05-15T00:32:44.735Z,2.62
2019-05-15T00:34:44.605Z,2.62
2019-05-15T00:37:13.399Z,2.22
2019-05-15T00:39:42.192Z,2.60
2019-05-15T00:42:10.935Z,2.65
2019-05-15T00:44:39.804Z,2.45
2019-05-15T00:47:10.443Z,2.42
2019-05-15T00:49:39.103Z,2.37
2019-05-15T00:52:12.055Z,2.20
2019-05-15T00:54:38.864Z,2.00
2019-05-15T00:57:08.583Z,2.20
2019-05-15T00:59:38.979Z,1.90
2019-05-15T01:02:08.705Z,2.00
2019-05-15T01:04:38.913Z,2.45
2019-05-15T01:07:08.298Z,2.10
2019-05-15T01:09:38.453Z,2.27
2019-05-15T01:12:09.066Z,2.17
2019-05-15T01:14:38.597Z,1.87
2019-05-15T01:17:09.062Z,2.20
2019-05-15T01:19:38.045Z,1.98
2019-05-15T01:22:08.744Z,2.05
2019-05-15T01:24:38.903Z,2.10
2019-05-15T01:27:09.130Z,2.37
2019-05-15T01:29:44.560Z,2.20
2019-05-15T01:32:08.569Z,2.27
2019-05-15T01:34:38.391Z,2.67
2019-05-15T01:37:08.584Z,2.37
2019-05-15T01:39:38.544Z,2.42
2019-05-15T01:42:08.319Z,2.70
2019-05-15T01:44:38.987Z,2.50
2019-05-15T01:47:08.480Z,2.67
2019-05-15T01:49:38.443Z,2.17
2019-05-15T01:52:08.032Z,1.90
2019-05-15T01:54:38.310Z,2.50
2019-05-15T01:57:09.341Z,2.20
2019-05-15T01:59:40.195Z,2.02
2019-05-15T02:02:09.636Z,1.70
2019-05-15T02:04:39.339Z,2.12
2019-05-15T02:07:08.381Z,1.92
2019-05-15T02:09:38.575Z,2.00
2019-05-15T02:12:08.732Z,2.72
2019-05-15T02:14:39.171Z,2.27
2019-05-15T02:17:08.526Z,1.60
2019-05-15T02:19:39.229Z,1.50
2019-05-15T02:22:08.365Z,1.60
2019-05-15T02:24:39.059Z,1.77
2019-05-15T02:27:09.006Z,1.60
2019-05-15T02:29:37.950Z,1.70
2019-05-15T02:32:09.948Z,1.45
2019-05-15T02:34:39.594Z,1.60
2019-05-15T02:37:08.991Z,1.67
2019-05-15T02:39:38.861Z,1.40
2019-05-15T02:42:09.967Z,1.77
2019-05-15T02:44:40.052Z,1.92
2019-05-15T02:47:09.290Z,1.40
2019-05-15T02:49:39.656Z,1.55
2019-05-15T02:52:09.781Z,1.72
2019-05-15T02:54:40.068Z,1.50
2019-05-15T02:57:09.799Z,1.60
2019-05-15T02:59:39.590Z,1.55
2019-05-15T03:02:10.170Z,1.50
2019-05-15T03:04:40.105Z,1.62
2019-05-15T03:07:09.740Z,1.95
2019-05-15T03:09:39.923Z,1.52
2019-05-15T03:12:09.198Z,1.45
2019-05-15T03:14:39.971Z,1.32
2019-05-15T03:17:09.750Z,1.60
2019-05-15T03:19:39.419Z,1.25
2019-05-15T03:22:09.797Z,1.50
2019-05-15T03:24:39.688Z,1.17
2019-05-15T03:27:09.203Z,1.22
2019-05-15T03:29:40.450Z,1.37
2019-05-15T03:32:24.262Z,1.32
2019-05-15T03:34:46.804Z,1.37
2019-05-15T03:37:12.212Z,1.40
2019-05-15T03:39:40.300Z,1.55
2019-05-15T03:42:09.625Z,1.40
2019-05-15T03:44:39.438Z,1.10
2019-05-15T03:47:09.270Z,1.37
2019-05-15T03:49:39.707Z,1.10
2019-05-15T03:52:10.003Z,1.40
2019-05-15T03:54:39.495Z,1.52
2019-05-15T03:57:09.798Z,1.70
2019-05-15T03:59:39.892Z,1.70
2019-05-15T04:02:09.001Z,1.55
2019-05-15T04:04:38.934Z,1.30
2019-05-15T04:07:09.316Z,1.20
2019-05-15T04:16:01.182Z,1.57
2019-05-15T04:18:30.003Z,1.47
2019-05-15T04:21:00.212Z,1.42
2019-05-15T04:23:30.190Z,1.62
2019-05-15T04:25:59.350Z,1.50
2019-05-15T04:28:30.052Z,1.67
2019-05-15T04:30:59.646Z,1.70
2019-05-15T04:33:29.557Z,1.47
2019-05-15T04:35:59.114Z,1.60
2019-05-15T04:38:29.202Z,1.32
2019-05-15T04:40:59.055Z,1.32
2019-05-15T04:43:29.756Z,1.40
2019-05-15T04:46:02.837Z,1.85
2019-05-15T04:48:29.809Z,1.57
2019-05-15T04:50:58.974Z,1.70
2019-05-15T04:53:29.630Z,1.87
2019-05-15T04:55:59.729Z,1.95
2019-05-15T04:58:29.799Z,1.50
2019-05-15T05:00:59.906Z,1.37
2019-05-15T05:03:29.531Z,1.57
2019-05-15T05:05:59.337Z,1.60
2019-05-15T05:08:29.290Z,1.60
2019-05-15T05:10:59.266Z,1.85
2019-05-15T05:13:28.850Z,1.90
2019-05-15T05:15:58.680Z,4.35
2019-05-15T05:18:29.781Z,1.67
2019-05-15T05:20:58.306Z,1.50
2019-05-15T05:23:28.371Z,1.27
2019-05-15T05:25:58.170Z,1.40
2019-05-15T05:28:30.762Z,1.40
2019-05-15T05:30:59.662Z,1.30
2019-05-15T05:33:28.772Z,1.55
2019-05-15T05:35:58.409Z,1.65
2019-05-15T05:38:28.156Z,1.27
2019-05-15T05:40:58.723Z,2.00
2019-05-15T05:43:29.827Z,1.80
2019-05-15T05:45:58.309Z,1.60
2019-05-15T05:48:29.256Z,1.87
2019-05-15T05:50:58.415Z,1.72
2019-05-15T05:53:28.673Z,2.08
2019-05-15T05:55:58.131Z,2.05
2019-05-15T05:58:29.521Z,1.70
2019-05-15T06:00:58.581Z,1.67
2019-05-15T06:03:28.221Z,2.52
2019-05-15T06:05:59.138Z,1.77
2019-05-15T06:08:28.353Z,2.52
2019-05-15T06:10:58.535Z,1.75
2019-05-15T06:13:29.083Z,1.57
2019-05-15T06:15:59.075Z,1.90
2019-05-15T06:18:28.299Z,1.60
2019-05-15T06:20:58.693Z,1.62
2019-05-15T06:23:33.585Z,1.60
2019-05-15T06:25:59.264Z,1.55
2019-05-15T06:28:28.948Z,1.60
2019-05-15T06:31:00.822Z,1.30
2019-05-15T06:33:28.525Z,1.75
2019-05-15T06:35:59.218Z,1.30
2019-05-15T06:38:30.877Z,1.50
2019-05-15T06:40:58.494Z,1.30
2019-05-15T06:43:28.075Z,1.60
2019-05-15T06:45:58.438Z,1.50
2019-05-15T06:48:28.848Z,1.60
2019-05-15T06:50:58.010Z,1.40
2019-05-15T06:53:29.057Z,1.35
2019-05-15T06:55:58.443Z,1.65
2019-05-15T06:58:28.973Z,1.55
2019-05-15T07:01:00.018Z,1.87
2019-05-15T07:03:29.551Z,1.50
2019-05-15T07:05:59.719Z,1.37
2019-05-15T07:08:28.970Z,1.20
2019-05-15T07:11:00.441Z,1.50
2019-05-15T07:13:29.266Z,1.52
2019-05-15T07:15:58.636Z,2.05
2019-05-15T07:18:28.351Z,1.60
2019-05-15T07:20:58.051Z,1.20
2019-05-15T07:23:30.380Z,1.47
2019-05-15T07:25:58.757Z,1.70
2019-05-15T07:28:28.893Z,1.40
2019-05-15T07:30:58.376Z,1.40
2019-05-15T07:33:38.670Z,1.30
2019-05-15T07:35:59.442Z,1.40
2019-05-15T07:38:28.355Z,1.47
2019-05-15T07:41:03.131Z,1.52
2019-05-15T07:43:28.105Z,2.42
2019-05-15T07:45:58.998Z,1.60
2019-05-15T07:48:29.137Z,1.20
2019-05-15T07:50:59.468Z,1.27
2019-05-15T07:53:30.630Z,1.52
2019-05-15T07:56:01.075Z,1.45
2019-05-15T07:58:32.309Z,1.20
2019-05-15T08:01:01.062Z,1.07
2019-05-15T08:03:29.884Z,1.20
2019-05-15T08:06:02.779Z,1.20
2019-05-15T08:08:29.264Z,1.42
2019-05-15T08:10:58.283Z,1.47
2019-05-15T08:13:28.939Z,1.90
2019-05-15T08:15:58.016Z,1.40
2019-05-15T08:18:28.596Z,1.45
2019-05-15T08:20:58.556Z,1.57
2019-05-15T08:23:29.220Z,1.00
2019-05-15T08:25:58.137Z,1.55
2019-05-15T08:28:28.736Z,1.30
2019-05-15T08:30:58.385Z,1.32
2019-05-15T08:33:28.050Z,1.40
2019-05-15T08:35:58.905Z,1.22
2019-05-15T08:38:28.835Z,1.20
2019-05-15T08:40:59.294Z,1.30
2019-05-15T08:43:30.916Z,1.15
2019-05-15T08:45:58.818Z,1.20
2019-05-15T08:48:27.793Z,1.40
2019-05-15T08:50:57.899Z,1.50
2019-05-15T08:53:28.448Z,1.17
2019-05-15T08:55:58.735Z,2.05
2019-05-15T08:58:29.136Z,1.30
2019-05-15T09:00:58.663Z,1.60
2019-05-15T09:03:28.632Z,1.45
2019-05-15T09:05:58.971Z,1.35
2019-05-15T09:08:29.368Z,1.07
2019-05-15T09:10:58.796Z,1.40
2019-05-15T09:13:29.238Z,1.60
2019-05-15T09:15:58.902Z,1.07
2019-05-15T09:18:28.467Z,1.10
2019-05-15T09:21:00.963Z,1.55
2019-05-15T09:23:29.832Z,1.10
2019-05-15T09:25:58.616Z,1.35
2019-05-15T09:28:29.588Z,1.12
2019-05-15T09:30:59.102Z,1.40
2019-05-15T09:33:28.741Z,1.52
2019-05-15T09:35:58.324Z,1.20
2019-05-15T09:38:28.998Z,1.07
2019-05-15T09:40:58.486Z,1.40
2019-05-15T09:43:28.570Z,1.20
2019-05-15T09:45:58.331Z,1.50
2019-05-15T09:48:28.654Z,1.35
2019-05-15T09:50:58.733Z,1.30
2019-05-15T09:53:28.543Z,1.77
2019-05-15T09:55:59.745Z,1.25
2019-05-15T09:58:30.059Z,1.55
2019-05-15T10:00:58.486Z,1.40
2019-05-15T10:03:28.237Z,1.37
2019-05-15T10:05:57.540Z,1.37
2019-05-15T10:08:29.160Z,2.17
2019-05-15T10:10:59.195Z,1.77
2019-05-15T10:13:28.918Z,1.37
2019-05-15T10:15:58.583Z,1.40
2019-05-15T10:18:28.211Z,1.30
2019-05-15T10:20:58.116Z,1.57
2019-05-15T10:23:29.225Z,2.30
2019-05-15T10:25:58.938Z,2.00
2019-05-15T10:28:29.360Z,3.20
2019-05-15T10:31:00.013Z,1.25
2019-05-15T10:33:29.571Z,1.10
2019-05-15T10:35:59.131Z,2.08
2019-05-15T10:38:28.621Z,1.32
2019-05-15T10:41:07.971Z,1.27
2019-05-15T10:43:28.783Z,1.15
2019-05-15T10:45:58.712Z,1.40
2019-05-15T10:48:29.212Z,1.35
2019-05-15T10:51:05.829Z,1.50
2019-05-15T10:53:29.674Z,1.40
2019-05-15T10:55:59.669Z,1.15
2019-05-15T10:58:29.277Z,1.67
2019-05-15T11:01:02.394Z,1.05
2019-05-15T11:03:29.786Z,1.30
2019-05-15T11:05:58.920Z,1.75
2019-05-15T11:08:29.005Z,1.35
2019-05-15T11:10:58.588Z,1.40
2019-05-15T11:13:28.842Z,1.70
2019-05-15T11:15:57.737Z,1.70
2019-05-15T11:18:30.517Z,1.60
2019-05-15T11:20:59.323Z,1.87
2019-05-15T11:23:29.316Z,1.82
2019-05-15T11:25:58.202Z,1.90
2019-05-15T11:28:31.715Z,1.50
2019-05-15T11:30:59.446Z,1.70
2019-05-15T11:33:29.321Z,1.45
2019-05-15T11:36:05.388Z,1.80
2019-05-15T11:38:29.134Z,1.90
2019-05-15T11:40:58.235Z,2.25
2019-05-15T11:43:29.204Z,1.30
2019-05-15T11:45:58.861Z,2.17
2019-05-15T11:48:29.863Z,2.27
2019-05-15T11:50:58.650Z,1.80
2019-05-15T11:53:28.414Z,1.57
2019-05-15T11:55:59.678Z,1.92
2019-05-15T11:58:28.303Z,2.67
2019-05-15T12:00:57.916Z,1.55
2019-05-15T12:03:29.077Z,2.05
2019-05-15T12:05:59.641Z,1.85
2019-05-15T12:08:29.346Z,2.08
2019-05-15T12:10:59.088Z,1.90
2019-05-15T12:13:28.379Z,2.20
2019-05-15T12:15:58.909Z,1.95
2019-05-15T12:18:28.447Z,2.10
2019-05-15T12:20:59.601Z,2.15
2019-05-15T12:23:29.169Z,2.15
2019-05-15T12:25:59.708Z,2.47
2019-05-15T12:28:29.748Z,2.45
2019-05-15T12:30:59.825Z,2.05
2019-05-15T12:33:29.192Z,2.30
2019-05-15T12:35:58.520Z,2.05
2019-05-15T13:01:14.863Z,1.85
2019-05-15T13:03:32.213Z,2.05
2019-05-15T13:06:01.053Z,2.50
2019-05-15T13:08:29.919Z,1.57
2019-05-15T13:10:58.843Z,2.05
2019-05-15T13:13:28.334Z,1.90
2019-05-15T13:15:58.941Z,1.80
2019-05-15T13:18:28.607Z,2.20
2019-05-15T13:20:59.544Z,2.60
2019-05-15T13:23:28.587Z,2.08
2019-05-15T13:25:59.121Z,2.62
2019-05-15T13:28:29.114Z,1.80
2019-05-15T13:30:59.589Z,2.47
2019-05-15T13:33:28.788Z,1.80
2019-05-15T13:35:58.462Z,3.60
2019-05-15T13:38:28.763Z,1.90
2019-05-15T13:40:58.969Z,2.08
2019-05-15T13:43:28.960Z,2.02
2019-05-15T13:45:58.979Z,1.95
2019-05-15T13:48:29.325Z,1.90
2019-05-15T13:50:59.161Z,1.98
2019-05-15T13:53:28.189Z,1.92
2019-05-15T13:55:56.984Z,2.15
2019-05-15T13:58:28.053Z,1.90
2019-05-15T14:00:58.957Z,1.75
2019-05-15T14:03:28.541Z,1.70
2019-05-15T14:05:58.382Z,2.22
2019-05-15T14:08:28.765Z,2.15
2019-05-15T14:10:58.332Z,1.82
2019-05-15T14:13:28.718Z,2.00
2019-05-15T14:15:58.202Z,2.00
2019-05-15T14:18:28.658Z,2.27
2019-05-15T14:20:58.397Z,2.22
2019-05-15T14:23:29.582Z,2.17
2019-05-15T14:25:58.918Z,1.95
2019-05-15T14:28:28.562Z,1.87
2019-05-15T14:30:58.709Z,2.02
2019-05-15T14:33:29.173Z,2.00
2019-05-15T14:35:58.293Z,1.80
2019-05-15T14:38:28.890Z,1.50
2019-05-15T14:40:59.100Z,2.25
2019-05-15T14:43:29.341Z,1.75
2019-05-15T14:45:58.790Z,2.10
2019-05-15T14:48:28.125Z,1.72
2019-05-15T14:50:58.403Z,1.80
2019-05-15T14:53:29.433Z,2.33
2019-05-15T14:56:00.446Z,1.80
2019-05-15T14:58:28.562Z,1.67
2019-05-15T15:01:03.441Z,1.30
2019-05-15T15:03:28.859Z,1.65
2019-05-15T15:05:58.292Z,1.95
2019-05-15T15:08:29.246Z,2.10
2019-05-15T15:10:59.484Z,1.60
2019-05-15T15:13:28.905Z,1.50
2019-05-15T15:15:59.054Z,1.77
2019-05-15T15:18:28.162Z,2.37
2019-05-15T15:20:58.029Z,1.90
2019-05-15T15:23:28.338Z,2.05
2019-05-15T15:25:57.977Z,1.98
2019-05-15T15:28:27.084Z,2.30
2019-05-15T15:30:57.909Z,1.80
2019-05-15T15:33:28.646Z,1.80
2019-05-15T15:35:58.120Z,1.95
2019-05-15T15:38:37.956Z,1.77
2019-05-15T15:41:00.235Z,1.60
2019-05-15T15:43:28.848Z,1.72
2019-05-15T15:45:58.157Z,2.47
2019-05-15T15:48:28.563Z,2.37
2019-05-15T15:50:58.641Z,1.80
2019-05-15T15:53:28.625Z,2.12
2019-05-15T15:59:28.765Z,1.80
2019-05-15T16:01:59.700Z,2.35
2019-05-15T16:04:28.200Z,1.75
2019-05-15T16:06:58.915Z,2.08
2019-05-15T16:09:28.162Z,1.80
2019-05-15T16:11:58.375Z,2.35
2019-05-15T16:14:28.686Z,2.30
2019-05-15T16:16:57.558Z,2.12
2019-05-15T16:19:28.365Z,1.90
2019-05-15T16:21:59.438Z,2.05
2019-05-15T16:24:29.282Z,2.10
2019-05-15T16:26:58.000Z,1.70
2019-05-15T16:29:28.341Z,2.60
2019-05-15T16:31:58.244Z,2.10
2019-05-15T16:34:28.363Z,2.40
2019-05-15T16:36:58.521Z,3.92
2019-05-15T16:39:28.719Z,2.40
2019-05-15T16:41:59.375Z,2.33
2019-05-15T16:44:28.943Z,2.50
2019-05-15T16:46:58.873Z,2.77
2019-05-15T16:49:28.463Z,3.15
2019-05-15T16:51:58.342Z,2.22
2019-05-15T16:54:28.901Z,2.70
2019-05-15T16:56:59.464Z,2.92
2019-05-15T16:59:30.031Z,7.47
2019-05-15T17:01:58.965Z,3.50
2019-05-15T17:04:28.860Z,2.60
2019-05-15T17:06:58.507Z,2.98
2019-05-15T17:09:28.093Z,2.80
2019-05-15T17:11:58.220Z,3.70
2019-05-15T17:14:28.811Z,2.40
2019-05-15T17:16:58.649Z,3.20
2019-05-15T17:19:29.292Z,5.37
2019-05-15T17:21:58.818Z,3.05
2019-05-15T17:24:27.936Z,3.58
2019-05-15T17:26:59.305Z,2.60
2019-05-15T17:29:29.166Z,6.42
2019-05-15T17:31:58.508Z,3.12
2019-05-15T17:34:28.538Z,3.55
2019-05-15T17:36:58.329Z,3.15
2019-05-15T17:39:36.578Z,3.52
2019-05-15T17:41:59.288Z,3.10
2019-05-15T17:44:28.741Z,2.98
2019-05-15T17:46:58.486Z,2.47
2019-05-15T17:49:28.033Z,5.00
2019-05-15T17:51:58.212Z,2.75
2019-05-15T17:54:28.736Z,2.67
2019-05-15T17:56:58.392Z,3.15
2019-05-15T17:59:28.637Z,2.27
2019-05-15T18:01:59.573Z,3.20
2019-05-15T18:04:28.330Z,4.03
2019-05-15T18:06:59.080Z,3.30
2019-05-15T18:09:28.097Z,2.65
2019-05-15T18:12:10.844Z,2.80
2019-05-15T18:14:40.078Z,2.52
2019-05-15T18:17:09.020Z,3.60
2019-05-15T18:19:38.122Z,2.80
2019-05-15T18:22:08.992Z,2.58
2019-05-15T18:24:38.756Z,3.12
2019-05-15T18:27:08.520Z,3.05
2019-05-15T18:29:38.598Z,3.35
2019-05-15T18:32:08.726Z,2.70
2019-05-15T18:34:39.608Z,3.95
2019-05-15T18:37:09.077Z,2.72
2019-05-15T18:39:38.922Z,3.65
2019-05-15T18:42:08.383Z,3.90
2019-05-15T18:44:39.353Z,4.05
2019-05-15T18:47:09.273Z,3.37
2019-05-15T18:49:39.205Z,3.50
2019-05-15T18:52:09.075Z,5.72
2019-05-15T18:54:38.737Z,3.70
2019-05-15T18:57:09.053Z,3.35
2019-05-15T18:59:38.889Z,3.77
2019-05-15T19:02:08.744Z,3.90
2019-05-15T19:04:38.267Z,4.12
2019-05-15T19:07:08.922Z,3.12
2019-05-15T19:09:38.724Z,4.05
2019-05-15T19:12:11.980Z,5.72
2019-05-15T19:14:41.910Z,3.27
2019-05-15T19:17:11.573Z,3.08
2019-05-15T19:19:41.539Z,3.17
2019-05-15T19:22:11.372Z,3.62
2019-05-15T19:24:41.011Z,5.05
2019-05-15T19:27:10.818Z,3.15
2019-05-15T19:29:40.549Z,3.50
2019-05-15T19:32:11.127Z,3.95
2019-05-15T19:34:41.378Z,3.90
2019-05-15T19:37:10.821Z,2.70
2019-05-15T19:39:40.421Z,4.20
2019-05-15T19:42:10.098Z,3.35
2019-05-15T19:44:39.801Z,3.08
2019-05-15T19:47:09.434Z,2.30
2019-05-15T19:49:38.998Z,2.42
2019-05-15T19:52:08.722Z,2.92
2019-05-15T19:54:38.775Z,3.40
2019-05-15T19:57:08.525Z,2.80
2019-05-15T19:59:38.193Z,2.92
2019-05-15T20:02:08.531Z,3.30
2019-05-15T20:04:38.659Z,2.45
2019-05-15T20:07:08.075Z,2.72
2019-05-15T20:09:38.352Z,3.30
2019-05-15T20:12:09.970Z,2.37
2019-05-15T20:14:39.817Z,2.30
2019-05-15T20:17:09.013Z,2.40
2019-05-15T20:19:38.501Z,2.22
2019-05-15T20:22:08.172Z,2.80
2019-05-15T20:24:38.322Z,2.40
2019-05-15T20:27:08.529Z,2.50
2019-05-15T20:29:38.397Z,2.70
2019-05-15T20:32:08.056Z,2.22
2019-05-15T20:34:37.940Z,3.08
2019-05-15T20:37:08.018Z,3.12
2019-05-15T20:39:38.662Z,3.17
2019-05-15T20:42:12.286Z,3.12
2019-05-15T20:44:41.427Z,3.53
2019-05-15T20:47:12.866Z,3.30
2019-05-15T20:49:43.324Z,3.47
2019-05-15T20:52:12.993Z,2.85
2019-05-15T20:54:42.563Z,2.52
2019-05-15T20:57:12.014Z,2.90
2019-05-15T20:59:40.963Z,2.15
2019-05-15T21:02:10.447Z,2.50
2019-05-15T21:04:40.336Z,2.55
2019-05-15T21:07:10.255Z,2.40
2019-05-15T21:09:39.832Z,2.20
2019-05-15T21:12:09.953Z,2.22
2019-05-15T21:14:40.074Z,2.05
2019-05-15T21:17:09.363Z,1.95
2019-05-15T21:19:39.049Z,2.20
2019-05-15T21:22:10.943Z,2.77
2019-05-15T21:24:39.143Z,1.95
2019-05-15T21:27:08.897Z,2.12
2019-05-15T21:29:40.505Z,2.00
2019-05-15T21:32:09.133Z,1.60
2019-05-15T21:34:44.050Z,1.77
2019-05-15T21:37:09.233Z,2.50
2019-05-15T21:39:39.300Z,2.62
2019-05-15T21:42:08.930Z,2.33
2019-05-15T21:44:38.533Z,2.22
2019-05-15T21:47:08.223Z,2.00
2019-05-15T21:49:38.786Z,2.12
2019-05-15T21:52:08.697Z,1.75
2019-05-15T21:54:38.545Z,1.80
2019-05-15T21:57:29.200Z,1.90
2019-05-15T21:59:38.788Z,2.02
2019-05-15T22:02:08.519Z,2.30
2019-05-15T22:04:51.014Z,2.10
2019-05-15T22:07:09.149Z,2.20
2019-05-15T22:09:38.548Z,2.60
2019-05-15T22:12:08.234Z,2.12
2019-05-15T22:14:37.886Z,2.22
2019-05-15T22:17:09.244Z,2.45
2019-05-15T22:19:42.035Z,1.70
2019-05-15T22:22:11.834Z,2.37
2019-05-15T22:24:41.275Z,2.00
2019-05-15T22:27:10.861Z,2.02
2019-05-15T22:29:40.086Z,1.80
2019-05-15T22:32:10.456Z,1.82
2019-05-15T22:34:40.106Z,2.00
2019-05-15T22:37:09.779Z,1.70
2019-05-15T22:39:39.539Z,1.80
2019-05-15T22:42:11.068Z,1.70
2019-05-15T22:44:40.501Z,2.00
2019-05-15T22:47:10.052Z,1.50
2019-05-15T22:49:39.485Z,2.05
2019-05-15T22:52:08.750Z,1.80
2019-05-15T22:54:38.702Z,1.90
2019-05-15T22:57:08.530Z,2.00
2019-05-15T22:59:38.227Z,2.10
2019-05-15T23:02:09.293Z,2.37
2019-05-15T23:04:38.192Z,2.00
2019-05-15T23:07:08.158Z,1.90
2019-05-15T23:09:38.418Z,2.10
2019-05-15T23:12:11.280Z,2.37
2019-05-15T23:14:39.289Z,2.40
2019-05-15T23:17:08.325Z,2.25
2019-05-15T23:19:38.558Z,2.00
2019-05-15T23:22:08.420Z,2.02
2019-05-15T23:24:38.753Z,2.00
2019-05-15T23:27:08.867Z,1.72
2019-05-15T23:29:38.603Z,1.75
2019-05-15T23:32:08.115Z,1.60
2019-05-15T23:34:38.613Z,2.02
2019-05-15T23:37:08.362Z,1.90
2019-05-15T23:39:38.122Z,1.90
2019-05-15T23:42:08.881Z,2.20
2019-05-15T23:44:38.387Z,1.60
2019-05-15T23:47:08.172Z,1.70
2019-05-15T23:49:38.186Z,1.50
2019-05-15T23:52:08.891Z,1.65
2019-05-15T23:54:38.591Z,1.67
2019-05-15T23:57:08.894Z,1.90
2019-05-15T23:59:38.471Z,1.62
